sensor_id;sensor_type;location;lat;lon;timestamp;P1;durP1;ratioP1;P2;durP2;ratioP2
28343;SDS011;15597;50.914;6.638;2022-11-15T00:01:06;7.78;;;4.50;;
28343;SDS011;15597;50.914;6.638;2022-11-15T00:03:53;9.43;;;4.00;;
28343;SDS011;15597;50.914;6.638;2022-11-15T00:06:37;8.55;;;4.22;;
28343;SDS011;15597;50.914;6.638;2022-11-15T00:09:22;8.23;;;4.30;;
28343;SDS011;15597;50.914;6.638;2022-11-15T00:12:06;7.28;;;3.72;;
28343;SDS011;15597;50.914;6.638;2022-11-15T00:14:50;8.07;;;4.03;;
28343;SDS011;15597;50.914;6.638;2022-11-15T00:17:34;8.93;;;3.95;;
28343;SDS011;15597;50.914;6.638;2022-11-15T00:20:18;9.63;;;4.28;;
28343;SDS011;15597;50.914;6.638;2022-11-15T00:23:03;7.13;;;4.00;;
28343;SDS011;15597;50.914;6.638;2022-11-15T00:25:54;7.60;;;4.00;;
28343;SDS011;15597;50.914;6.638;2022-11-15T00:28:40;7.80;;;3.80;;
28343;SDS011;15597;50.914;6.638;2022-11-15T00:31:25;7.63;;;4.13;;
28343;SDS011;15597;50.914;6.638;2022-11-15T00:34:09;7.28;;;3.63;;
28343;SDS011;15597;50.914;6.638;2022-11-15T00:36:54;8.23;;;3.80;;
28343;SDS011;15597;50.914;6.638;2022-11-15T00:39:38;9.20;;;4.07;;
28343;SDS011;15597;50.914;6.638;2022-11-15T00:42:22;9.77;;;4.18;;
28343;SDS011;15597;50.914;6.638;2022-11-15T00:45:07;7.50;;;3.95;;
28343;SDS011;15597;50.914;6.638;2022-11-15T00:47:52;7.97;;;4.05;;
28343;SDS011;15597;50.914;6.638;2022-11-15T00:50:36;7.82;;;3.90;;
28343;SDS011;15597;50.914;6.638;2022-11-15T00:53:20;7.65;;;3.67;;
28343;SDS011;15597;50.914;6.638;2022-11-15T00:56:04;6.72;;;3.70;;
28343;SDS011;15597;50.914;6.638;2022-11-15T00:58:48;7.32;;;3.83;;
28343;SDS011;15597;50.914;6.638;2022-11-15T01:01:32;7.50;;;3.95;;
28343;SDS011;15597;50.914;6.638;2022-11-15T01:04:17;7.47;;;3.80;;
28343;SDS011;15597;50.914;6.638;2022-11-15T01:07:01;8.95;;;4.68;;
28343;SDS011;15597;50.914;6.638;2022-11-15T01:09:45;8.27;;;4.20;;
28343;SDS011;15597;50.914;6.638;2022-11-15T01:12:29;7.45;;;4.07;;
28343;SDS011;15597;50.914;6.638;2022-11-15T01:15:13;8.45;;;4.50;;
28343;SDS011;15597;50.914;6.638;2022-11-15T01:17:57;10.40;;;4.85;;
28343;SDS011;15597;50.914;6.638;2022-11-15T01:20:41;8.75;;;4.32;;
28343;SDS011;15597;50.914;6.638;2022-11-15T01:23:26;6.47;;;3.63;;
28343;SDS011;15597;50.914;6.638;2022-11-15T01:26:11;9.07;;;3.63;;
28343;SDS011;15597;50.914;6.638;2022-11-15T01:28:56;7.97;;;3.78;;
28343;SDS011;15597;50.914;6.638;2022-11-15T01:31:40;8.50;;;4.15;;
28343;SDS011;15597;50.914;6.638;2022-11-15T01:34:24;7.25;;;3.80;;
28343;SDS011;15597;50.914;6.638;2022-11-15T01:37:08;6.22;;;3.33;;
28343;SDS011;15597;50.914;6.638;2022-11-15T01:39:52;6.38;;;3.13;;
28343;SDS011;15597;50.914;6.638;2022-11-15T01:42:36;6.65;;;3.40;;
28343;SDS011;15597;50.914;6.638;2022-11-15T01:45:20;5.93;;;3.28;;
28343;SDS011;15597;50.914;6.638;2022-11-15T01:48:07;6.15;;;3.17;;
28343;SDS011;15597;50.914;6.638;2022-11-15T01:50:54;9.57;;;3.50;;
28343;SDS011;15597;50.914;6.638;2022-11-15T01:53:39;7.00;;;3.28;;
28343;SDS011;15597;50.914;6.638;2022-11-15T01:56:27;7.32;;;3.50;;
28343;SDS011;15597;50.914;6.638;2022-11-15T01:59:15;8.20;;;3.55;;
28343;SDS011;15597;50.914;6.638;2022-11-15T02:02:00;7.45;;;3.75;;
28343;SDS011;15597;50.914;6.638;2022-11-15T02:04:45;6.45;;;3.72;;
28343;SDS011;15597;50.914;6.638;2022-11-15T02:07:31;7.30;;;3.45;;
28343;SDS011;15597;50.914;6.638;2022-11-15T02:10:23;6.40;;;3.20;;
28343;SDS011;15597;50.914;6.638;2022-11-15T02:13:07;10.15;;;4.03;;
28343;SDS011;15597;50.914;6.638;2022-11-15T02:15:56;6.38;;;3.38;;
28343;SDS011;15597;50.914;6.638;2022-11-15T02:31:36;7.82;;;3.63;;
28343;SDS011;15597;50.914;6.638;2022-11-15T02:34:40;6.72;;;3.10;;
28343;SDS011;15597;50.914;6.638;2022-11-15T02:37:56;6.85;;;3.42;;
28343;SDS011;15597;50.914;6.638;2022-11-15T02:40:58;7.25;;;3.38;;
28343;SDS011;15597;50.914;6.638;2022-11-15T02:43:57;7.55;;;3.75;;
28343;SDS011;15597;50.914;6.638;2022-11-15T02:46:51;6.78;;;3.58;;
28343;SDS011;15597;50.914;6.638;2022-11-15T02:49:58;6.45;;;3.05;;
28343;SDS011;15597;50.914;6.638;2022-11-15T02:52:45;6.45;;;3.35;;
28343;SDS011;15597;50.914;6.638;2022-11-15T02:55:33;7.05;;;3.22;;
28343;SDS011;15597;50.914;6.638;2022-11-15T03:10:26;6.75;;;3.20;;
28343;SDS011;15597;50.914;6.638;2022-11-15T03:16:24;6.07;;;3.00;;
28343;SDS011;15597;50.914;6.638;2022-11-15T03:19:21;6.15;;;3.10;;
28343;SDS011;15597;50.914;6.638;2022-11-15T03:22:15;5.90;;;3.20;;
28343;SDS011;15597;50.914;6.638;2022-11-15T03:25:04;6.25;;;3.25;;
28343;SDS011;15597;50.914;6.638;2022-11-15T03:27:52;6.60;;;3.08;;
28343;SDS011;15597;50.914;6.638;2022-11-15T03:30:39;5.40;;;3.08;;
28343;SDS011;15597;50.914;6.638;2022-11-15T03:33:24;6.13;;;3.00;;
28343;SDS011;15597;50.914;6.638;2022-11-15T03:36:11;5.07;;;2.72;;
28343;SDS011;15597;50.914;6.638;2022-11-15T03:38:56;5.78;;;3.05;;
28343;SDS011;15597;50.914;6.638;2022-11-15T03:48:15;5.97;;;3.03;;
28343;SDS011;15597;50.914;6.638;2022-11-15T03:51:05;5.47;;;2.80;;
28343;SDS011;15597;50.914;6.638;2022-11-15T03:53:49;5.95;;;3.05;;
28343;SDS011;15597;50.914;6.638;2022-11-15T03:56:34;5.43;;;2.80;;
28343;SDS011;15597;50.914;6.638;2022-11-15T03:59:18;6.15;;;3.03;;
28343;SDS011;15597;50.914;6.638;2022-11-15T04:02:02;5.53;;;2.92;;
28343;SDS011;15597;50.914;6.638;2022-11-15T04:04:46;5.35;;;2.78;;
28343;SDS011;15597;50.914;6.638;2022-11-15T04:07:30;6.78;;;2.83;;
28343;SDS011;15597;50.914;6.638;2022-11-15T04:10:15;4.93;;;2.53;;
28343;SDS011;15597;50.914;6.638;2022-11-15T04:12:59;6.10;;;3.17;;
28343;SDS011;15597;50.914;6.638;2022-11-15T04:15:46;6.07;;;2.80;;
28343;SDS011;15597;50.914;6.638;2022-11-15T04:18:30;5.78;;;2.63;;
28343;SDS011;15597;50.914;6.638;2022-11-15T04:21:14;5.47;;;2.38;;
28343;SDS011;15597;50.914;6.638;2022-11-15T04:24:17;5.32;;;2.67;;
28343;SDS011;15597;50.914;6.638;2022-11-15T04:27:01;4.68;;;2.28;;
28343;SDS011;15597;50.914;6.638;2022-11-15T04:29:46;5.72;;;2.70;;
28343;SDS011;15597;50.914;6.638;2022-11-15T04:32:30;4.88;;;2.38;;
28343;SDS011;15597;50.914;6.638;2022-11-15T04:35:14;4.15;;;2.15;;
28343;SDS011;15597;50.914;6.638;2022-11-15T04:37:58;6.20;;;2.72;;
28343;SDS011;15597;50.914;6.638;2022-11-15T04:40:42;4.85;;;2.15;;
28343;SDS011;15597;50.914;6.638;2022-11-15T04:43:26;4.72;;;2.42;;
28343;SDS011;15597;50.914;6.638;2022-11-15T04:46:11;4.47;;;2.10;;
28343;SDS011;15597;50.914;6.638;2022-11-15T04:48:55;4.55;;;2.40;;
28343;SDS011;15597;50.914;6.638;2022-11-15T04:51:39;5.22;;;2.40;;
28343;SDS011;15597;50.914;6.638;2022-11-15T04:54:23;4.20;;;2.25;;
28343;SDS011;15597;50.914;6.638;2022-11-15T04:57:07;5.95;;;2.30;;
28343;SDS011;15597;50.914;6.638;2022-11-15T04:59:51;5.63;;;2.40;;
28343;SDS011;15597;50.914;6.638;2022-11-15T05:02:35;4.65;;;2.28;;
28343;SDS011;15597;50.914;6.638;2022-11-15T05:05:45;4.05;;;2.00;;
28343;SDS011;15597;50.914;6.638;2022-11-15T05:08:29;4.43;;;2.10;;
28343;SDS011;15597;50.914;6.638;2022-11-15T05:11:13;5.63;;;2.35;;
28343;SDS011;15597;50.914;6.638;2022-11-15T05:13:57;4.57;;;2.15;;
28343;SDS011;15597;50.914;6.638;2022-11-15T05:16:41;4.90;;;2.30;;
28343;SDS011;15597;50.914;6.638;2022-11-15T05:19:25;4.30;;;2.28;;
28343;SDS011;15597;50.914;6.638;2022-11-15T05:22:10;5.55;;;2.20;;
28343;SDS011;15597;50.914;6.638;2022-11-15T05:24:54;4.95;;;2.10;;
28343;SDS011;15597;50.914;6.638;2022-11-15T05:27:38;3.90;;;2.13;;
28343;SDS011;15597;50.914;6.638;2022-11-15T05:30:22;7.05;;;2.05;;
28343;SDS011;15597;50.914;6.638;2022-11-15T05:33:06;5.25;;;2.10;;
28343;SDS011;15597;50.914;6.638;2022-11-15T05:35:50;4.60;;;2.22;;
28343;SDS011;15597;50.914;6.638;2022-11-15T05:38:41;4.63;;;2.20;;
28343;SDS011;15597;50.914;6.638;2022-11-15T05:41:27;5.00;;;2.03;;
28343;SDS011;15597;50.914;6.638;2022-11-15T05:47:10;3.60;;;1.90;;
28343;SDS011;15597;50.914;6.638;2022-11-15T05:49:57;3.90;;;2.00;;
28343;SDS011;15597;50.914;6.638;2022-11-15T05:52:41;3.85;;;1.90;;
28343;SDS011;15597;50.914;6.638;2022-11-15T05:55:26;4.47;;;1.75;;
28343;SDS011;15597;50.914;6.638;2022-11-15T05:58:10;3.88;;;2.00;;
28343;SDS011;15597;50.914;6.638;2022-11-15T06:00:54;3.40;;;1.58;;
28343;SDS011;15597;50.914;6.638;2022-11-15T06:03:38;3.83;;;1.88;;
28343;SDS011;15597;50.914;6.638;2022-11-15T06:06:23;3.30;;;1.45;;
28343;SDS011;15597;50.914;6.638;2022-11-15T06:09:07;4.50;;;2.15;;
28343;SDS011;15597;50.914;6.638;2022-11-15T06:11:51;4.65;;;1.90;;
28343;SDS011;15597;50.914;6.638;2022-11-15T06:14:35;4.00;;;2.00;;
28343;SDS011;15597;50.914;6.638;2022-11-15T06:17:19;4.30;;;1.63;;
28343;SDS011;15597;50.914;6.638;2022-11-15T06:20:03;5.20;;;1.77;;
28343;SDS011;15597;50.914;6.638;2022-11-15T06:22:47;4.22;;;2.00;;
28343;SDS011;15597;50.914;6.638;2022-11-15T06:25:31;4.85;;;1.90;;
28343;SDS011;15597;50.914;6.638;2022-11-15T06:28:16;3.90;;;2.10;;
28343;SDS011;15597;50.914;6.638;2022-11-15T06:31:03;3.10;;;1.60;;
28343;SDS011;15597;50.914;6.638;2022-11-15T06:33:49;4.60;;;1.75;;
28343;SDS011;15597;50.914;6.638;2022-11-15T06:36:34;3.40;;;1.60;;
28343;SDS011;15597;50.914;6.638;2022-11-15T06:39:19;4.03;;;1.60;;
28343;SDS011;15597;50.914;6.638;2022-11-15T06:42:03;4.30;;;1.83;;
28343;SDS011;15597;50.914;6.638;2022-11-15T06:44:48;3.72;;;1.73;;
28343;SDS011;15597;50.914;6.638;2022-11-15T06:47:32;4.13;;;1.80;;
28343;SDS011;15597;50.914;6.638;2022-11-15T06:50:16;4.13;;;1.83;;
28343;SDS011;15597;50.914;6.638;2022-11-15T06:53:01;4.72;;;1.73;;
28343;SDS011;15597;50.914;6.638;2022-11-15T06:55:47;3.97;;;1.70;;
28343;SDS011;15597;50.914;6.638;2022-11-15T06:58:32;5.13;;;1.73;;
28343;SDS011;15597;50.914;6.638;2022-11-15T07:01:16;4.05;;;1.60;;
28343;SDS011;15597;50.914;6.638;2022-11-15T07:04:00;3.42;;;1.52;;
28343;SDS011;15597;50.914;6.638;2022-11-15T07:06:46;4.20;;;1.60;;
28343;SDS011;15597;50.914;6.638;2022-11-15T07:09:33;5.25;;;1.58;;
28343;SDS011;15597;50.914;6.638;2022-11-15T07:12:17;5.03;;;1.63;;
28343;SDS011;15597;50.914;6.638;2022-11-15T07:15:01;4.32;;;1.60;;
28343;SDS011;15597;50.914;6.638;2022-11-15T07:17:45;4.60;;;1.50;;
28343;SDS011;15597;50.914;6.638;2022-11-15T07:20:30;4.55;;;1.58;;
28343;SDS011;15597;50.914;6.638;2022-11-15T07:23:14;4.70;;;1.70;;
28343;SDS011;15597;50.914;6.638;2022-11-15T07:25:58;7.88;;;2.25;;
28343;SDS011;15597;50.914;6.638;2022-11-15T07:28:42;4.93;;;1.50;;
28343;SDS011;15597;50.914;6.638;2022-11-15T07:31:26;5.13;;;1.63;;
28343;SDS011;15597;50.914;6.638;2022-11-15T07:34:10;3.72;;;1.52;;
28343;SDS011;15597;50.914;6.638;2022-11-15T07:36:54;4.45;;;1.67;;
28343;SDS011;15597;50.914;6.638;2022-11-15T07:39:38;6.05;;;1.60;;
28343;SDS011;15597;50.914;6.638;2022-11-15T07:42:23;5.03;;;1.70;;
28343;SDS011;15597;50.914;6.638;2022-11-15T07:45:25;5.05;;;1.90;;
28343;SDS011;15597;50.914;6.638;2022-11-15T07:48:10;5.07;;;1.80;;
28343;SDS011;15597;50.914;6.638;2022-11-15T07:50:54;3.58;;;1.48;;
28343;SDS011;15597;50.914;6.638;2022-11-15T07:53:38;4.10;;;1.40;;
28343;SDS011;15597;50.914;6.638;2022-11-15T07:56:22;4.78;;;1.60;;
28343;SDS011;15597;50.914;6.638;2022-11-15T07:59:06;4.43;;;1.60;;
28343;SDS011;15597;50.914;6.638;2022-11-15T08:01:51;5.22;;;2.10;;
28343;SDS011;15597;50.914;6.638;2022-11-15T08:04:35;3.72;;;1.40;;
28343;SDS011;15597;50.914;6.638;2022-11-15T08:07:19;3.78;;;1.60;;
28343;SDS011;15597;50.914;6.638;2022-11-15T08:10:03;4.53;;;1.77;;
28343;SDS011;15597;50.914;6.638;2022-11-15T08:12:56;4.00;;;1.30;;
28343;SDS011;15597;50.914;6.638;2022-11-15T08:15:41;3.92;;;1.45;;
28343;SDS011;15597;50.914;6.638;2022-11-15T08:18:26;6.35;;;1.60;;
28343;SDS011;15597;50.914;6.638;2022-11-15T08:21:11;4.30;;;1.60;;
28343;SDS011;15597;50.914;6.638;2022-11-15T08:24:01;4.72;;;1.77;;
28343;SDS011;15597;50.914;6.638;2022-11-15T08:26:46;4.30;;;1.50;;
28343;SDS011;15597;50.914;6.638;2022-11-15T08:29:30;3.92;;;1.30;;
28343;SDS011;15597;50.914;6.638;2022-11-15T08:32:15;4.55;;;1.25;;
28343;SDS011;15597;50.914;6.638;2022-11-15T08:35:04;5.45;;;1.60;;
28343;SDS011;15597;50.914;6.638;2022-11-15T08:37:51;4.05;;;1.42;;
28343;SDS011;15597;50.914;6.638;2022-11-15T08:40:39;4.88;;;1.80;;
28343;SDS011;15597;50.914;6.638;2022-11-15T08:43:25;3.88;;;1.73;;
28343;SDS011;15597;50.914;6.638;2022-11-15T08:46:13;5.40;;;1.55;;
28343;SDS011;15597;50.914;6.638;2022-11-15T08:48:57;4.30;;;1.65;;
28343;SDS011;15597;50.914;6.638;2022-11-15T08:51:42;3.33;;;1.52;;
28343;SDS011;15597;50.914;6.638;2022-11-15T08:54:29;5.35;;;1.90;;
28343;SDS011;15597;50.914;6.638;2022-11-15T08:57:13;5.50;;;1.70;;
28343;SDS011;15597;50.914;6.638;2022-11-15T09:00:01;4.47;;;1.58;;
28343;SDS011;15597;50.914;6.638;2022-11-15T09:02:55;3.08;;;1.30;;
28343;SDS011;15597;50.914;6.638;2022-11-15T09:05:42;3.83;;;1.52;;
28343;SDS011;15597;50.914;6.638;2022-11-15T09:08:29;4.95;;;1.52;;
28343;SDS011;15597;50.914;6.638;2022-11-15T09:11:14;3.35;;;1.40;;
28343;SDS011;15597;50.914;6.638;2022-11-15T09:14:10;5.53;;;1.48;;
28343;SDS011;15597;50.914;6.638;2022-11-15T09:16:57;4.88;;;1.50;;
28343;SDS011;15597;50.914;6.638;2022-11-15T09:19:43;4.28;;;1.10;;
28343;SDS011;15597;50.914;6.638;2022-11-15T09:22:31;3.08;;;1.17;;
28343;SDS011;15597;50.914;6.638;2022-11-15T09:25:29;4.18;;;1.23;;
28343;SDS011;15597;50.914;6.638;2022-11-15T09:28:13;3.80;;;1.42;;
28343;SDS011;15597;50.914;6.638;2022-11-15T09:31:03;2.95;;;1.33;;
28343;SDS011;15597;50.914;6.638;2022-11-15T09:34:02;4.57;;;1.30;;
28343;SDS011;15597;50.914;6.638;2022-11-15T09:36:47;4.03;;;1.40;;
28343;SDS011;15597;50.914;6.638;2022-11-15T09:39:33;3.50;;;1.10;;
28343;SDS011;15597;50.914;6.638;2022-11-15T09:45:26;5.85;;;1.30;;
28343;SDS011;15597;50.914;6.638;2022-11-15T09:48:59;3.78;;;1.30;;
28343;SDS011;15597;50.914;6.638;2022-11-15T09:52:06;5.32;;;1.30;;
28343;SDS011;15597;50.914;6.638;2022-11-15T09:55:15;3.30;;;1.20;;
28343;SDS011;15597;50.914;6.638;2022-11-15T09:57:50;5.72;;;1.23;;
28343;SDS011;15597;50.914;6.638;2022-11-15T10:03:08;4.32;;;1.20;;
28343;SDS011;15597;50.914;6.638;2022-11-15T10:05:43;3.67;;;0.95;;
28343;SDS011;15597;50.914;6.638;2022-11-15T10:11:41;2.47;;;1.05;;
28343;SDS011;15597;50.914;6.638;2022-11-15T10:22:44;3.35;;;1.13;;
28343;SDS011;15597;50.914;6.638;2022-11-15T10:27:44;2.75;;;1.17;;
28343;SDS011;15597;50.914;6.638;2022-11-15T10:30:18;4.82;;;0.80;;
28343;SDS011;15597;50.914;6.638;2022-11-15T10:32:56;3.67;;;1.10;;
28343;SDS011;15597;50.914;6.638;2022-11-15T10:35:23;4.40;;;1.30;;
28343;SDS011;15597;50.914;6.638;2022-11-15T10:38:10;4.18;;;1.00;;
28343;SDS011;15597;50.914;6.638;2022-11-15T10:40:37;4.55;;;1.05;;
28343;SDS011;15597;50.914;6.638;2022-11-15T10:43:13;3.15;;;1.00;;
28343;SDS011;15597;50.914;6.638;2022-11-15T10:45:45;3.65;;;0.90;;
28343;SDS011;15597;50.914;6.638;2022-11-15T10:50:41;3.38;;;1.02;;
28343;SDS011;15597;50.914;6.638;2022-11-15T10:53:14;4.28;;;2.13;;
28343;SDS011;15597;50.914;6.638;2022-11-15T10:55:54;13.10;;;1.25;;
28343;SDS011;15597;50.914;6.638;2022-11-15T10:58:39;4.68;;;1.10;;
28343;SDS011;15597;50.914;6.638;2022-11-15T11:01:11;3.28;;;0.90;;
28343;SDS011;15597;50.914;6.638;2022-11-15T11:03:42;2.20;;;0.75;;
28343;SDS011;15597;50.914;6.638;2022-11-15T11:06:13;3.40;;;0.80;;
28343;SDS011;15597;50.914;6.638;2022-11-15T11:08:52;3.08;;;0.80;;
28343;SDS011;15597;50.914;6.638;2022-11-15T11:11:21;4.15;;;1.10;;
28343;SDS011;15597;50.914;6.638;2022-11-15T11:13:47;4.50;;;0.70;;
28343;SDS011;15597;50.914;6.638;2022-11-15T11:16:22;3.40;;;0.90;;
28343;SDS011;15597;50.914;6.638;2022-11-15T11:19:13;3.13;;;0.90;;
28343;SDS011;15597;50.914;6.638;2022-11-15T11:25:16;3.17;;;0.95;;
28343;SDS011;15597;50.914;6.638;2022-11-15T11:33:10;3.00;;;0.80;;
28343;SDS011;15597;50.914;6.638;2022-11-15T11:35:41;2.67;;;0.80;;
28343;SDS011;15597;50.914;6.638;2022-11-15T11:38:48;4.88;;;1.00;;
28343;SDS011;15597;50.914;6.638;2022-11-15T11:44:14;4.75;;;0.90;;
28343;SDS011;15597;50.914;6.638;2022-11-15T11:49:46;2.75;;;1.00;;
28343;SDS011;15597;50.914;6.638;2022-11-15T11:59:49;4.35;;;0.82;;
28343;SDS011;15597;50.914;6.638;2022-11-15T12:02:28;2.80;;;0.80;;
28343;SDS011;15597;50.914;6.638;2022-11-15T12:13:06;2.05;;;0.70;;
28343;SDS011;15597;50.914;6.638;2022-11-15T12:15:39;2.90;;;1.00;;
28343;SDS011;15597;50.914;6.638;2022-11-15T12:18:17;2.92;;;0.80;;
28343;SDS011;15597;50.914;6.638;2022-11-15T12:20:53;2.40;;;0.70;;
28343;SDS011;15597;50.914;6.638;2022-11-15T12:23:39;5.53;;;1.00;;
28343;SDS011;15597;50.914;6.638;2022-11-15T12:26:20;4.63;;;0.90;;
28343;SDS011;15597;50.914;6.638;2022-11-15T12:28:57;1.52;;;0.70;;
28343;SDS011;15597;50.914;6.638;2022-11-15T12:31:39;1.42;;;0.70;;
28343;SDS011;15597;50.914;6.638;2022-11-15T12:36:46;5.07;;;0.90;;
28343;SDS011;15597;50.914;6.638;2022-11-15T12:39:14;2.85;;;0.80;;
28343;SDS011;15597;50.914;6.638;2022-11-15T12:41:41;3.08;;;0.73;;
28343;SDS011;15597;50.914;6.638;2022-11-15T12:44:12;1.65;;;0.70;;
28343;SDS011;15597;50.914;6.638;2022-11-15T12:52:11;2.53;;;0.70;;
28343;SDS011;15597;50.914;6.638;2022-11-15T13:00:36;4.10;;;0.93;;
28343;SDS011;15597;50.914;6.638;2022-11-15T13:02:45;2.95;;;0.70;;
28343;SDS011;15597;50.914;6.638;2022-11-15T13:12:47;2.70;;;0.65;;
28343;SDS011;15597;50.914;6.638;2022-11-15T13:17:30;3.13;;;0.90;;
28343;SDS011;15597;50.914;6.638;2022-11-15T13:30:41;3.67;;;1.13;;
28343;SDS011;15597;50.914;6.638;2022-11-15T13:35:59;1.70;;;0.70;;
28343;SDS011;15597;50.914;6.638;2022-11-15T13:38:30;4.97;;;1.10;;
28343;SDS011;15597;50.914;6.638;2022-11-15T13:40:58;3.97;;;1.02;;
28343;SDS011;15597;50.914;6.638;2022-11-15T13:43:33;2.85;;;1.00;;
28343;SDS011;15597;50.914;6.638;2022-11-15T13:48:59;3.95;;;1.10;;
28343;SDS011;15597;50.914;6.638;2022-11-15T13:53:51;5.20;;;0.98;;
28343;SDS011;15597;50.914;6.638;2022-11-15T13:56:23;4.65;;;1.00;;
28343;SDS011;15597;50.914;6.638;2022-11-15T13:58:51;5.03;;;1.63;;
28343;SDS011;15597;50.914;6.638;2022-11-15T14:01:19;2.97;;;0.90;;
28343;SDS011;15597;50.914;6.638;2022-11-15T14:03:50;2.78;;;0.90;;
28343;SDS011;15597;50.914;6.638;2022-11-15T14:06:20;4.70;;;1.05;;
28343;SDS011;15597;50.914;6.638;2022-11-15T14:11:32;6.28;;;1.23;;
28343;SDS011;15597;50.914;6.638;2022-11-15T14:16:38;2.90;;;1.20;;
28343;SDS011;15597;50.914;6.638;2022-11-15T14:19:33;4.85;;;1.10;;
28343;SDS011;15597;50.914;6.638;2022-11-15T14:24:46;5.43;;;1.75;;
28343;SDS011;15597;50.914;6.638;2022-11-15T14:27:31;4.13;;;1.50;;
28343;SDS011;15597;50.914;6.638;2022-11-15T14:29:57;4.32;;;1.52;;
28343;SDS011;15597;50.914;6.638;2022-11-15T14:32:25;5.47;;;1.50;;
28343;SDS011;15597;50.914;6.638;2022-11-15T14:37:27;6.53;;;1.85;;
28343;SDS011;15597;50.914;6.638;2022-11-15T14:39:54;4.28;;;1.90;;
28343;SDS011;15597;50.914;6.638;2022-11-15T14:42:20;4.97;;;1.92;;
28343;SDS011;15597;50.914;6.638;2022-11-15T14:44:50;9.52;;;2.20;;
28343;SDS011;15597;50.914;6.638;2022-11-15T14:47:16;5.30;;;1.92;;
28343;SDS011;15597;50.914;6.638;2022-11-15T14:49:42;5.78;;;1.70;;
28343;SDS011;15597;50.914;6.638;2022-11-15T14:52:16;5.47;;;2.05;;
28343;SDS011;15597;50.914;6.638;2022-11-15T14:54:44;5.90;;;1.58;;
28343;SDS011;15597;50.914;6.638;2022-11-15T14:57:09;4.03;;;1.50;;
28343;SDS011;15597;50.914;6.638;2022-11-15T14:59:35;7.55;;;2.00;;
28343;SDS011;15597;50.914;6.638;2022-11-15T15:02:00;5.47;;;1.73;;
28343;SDS011;15597;50.914;6.638;2022-11-15T15:04:26;5.25;;;1.80;;
28343;SDS011;15597;50.914;6.638;2022-11-15T15:06:52;7.25;;;1.95;;
28343;SDS011;15597;50.914;6.638;2022-11-15T15:09:17;7.18;;;2.05;;
28343;SDS011;15597;50.914;6.638;2022-11-15T15:11:43;7.18;;;1.90;;
28343;SDS011;15597;50.914;6.638;2022-11-15T15:14:09;6.32;;;2.08;;
28343;SDS011;15597;50.914;6.638;2022-11-15T15:16:35;4.82;;;1.88;;
28343;SDS011;15597;50.914;6.638;2022-11-15T15:19:01;6.00;;;1.65;;
28343;SDS011;15597;50.914;6.638;2022-11-15T15:21:27;4.57;;;1.90;;
28343;SDS011;15597;50.914;6.638;2022-11-15T15:23:53;5.78;;;2.00;;
28343;SDS011;15597;50.914;6.638;2022-11-15T15:26:19;4.55;;;1.85;;
28343;SDS011;15597;50.914;6.638;2022-11-15T15:28:45;5.70;;;1.73;;
28343;SDS011;15597;50.914;6.638;2022-11-15T15:31:13;4.57;;;1.85;;
28343;SDS011;15597;50.914;6.638;2022-11-15T15:33:40;7.32;;;1.90;;
28343;SDS011;15597;50.914;6.638;2022-11-15T15:36:09;5.65;;;2.08;;
28343;SDS011;15597;50.914;6.638;2022-11-15T15:38:36;4.72;;;1.70;;
28343;SDS011;15597;50.914;6.638;2022-11-15T15:41:01;7.45;;;1.90;;
28343;SDS011;15597;50.914;6.638;2022-11-15T15:43:28;5.43;;;1.80;;
28343;SDS011;15597;50.914;6.638;2022-11-15T15:45:53;4.47;;;1.88;;
28343;SDS011;15597;50.914;6.638;2022-11-15T15:48:19;6.75;;;2.20;;
28343;SDS011;15597;50.914;6.638;2022-11-15T15:50:44;5.63;;;1.98;;
28343;SDS011;15597;50.914;6.638;2022-11-15T15:53:10;4.72;;;1.67;;
28343;SDS011;15597;50.914;6.638;2022-11-15T15:55:37;4.60;;;1.70;;
28343;SDS011;15597;50.914;6.638;2022-11-15T15:58:03;5.00;;;1.75;;
28343;SDS011;15597;50.914;6.638;2022-11-15T16:00:30;7.28;;;1.83;;
28343;SDS011;15597;50.914;6.638;2022-11-15T16:02:57;4.07;;;1.90;;
28343;SDS011;15597;50.914;6.638;2022-11-15T16:05:23;5.93;;;1.98;;
28343;SDS011;15597;50.914;6.638;2022-11-15T16:07:49;4.65;;;2.20;;
28343;SDS011;15597;50.914;6.638;2022-11-15T16:12:50;4.28;;;2.15;;
28343;SDS011;15597;50.914;6.638;2022-11-15T16:15:17;6.70;;;2.22;;
28343;SDS011;15597;50.914;6.638;2022-11-15T16:17:45;4.10;;;1.80;;
28343;SDS011;15597;50.914;6.638;2022-11-15T16:22:55;5.93;;;1.98;;
28343;SDS011;15597;50.914;6.638;2022-11-15T16:25:21;4.97;;;1.73;;
28343;SDS011;15597;50.914;6.638;2022-11-15T16:27:47;5.05;;;2.00;;
28343;SDS011;15597;50.914;6.638;2022-11-15T16:30:14;5.85;;;1.90;;
28343;SDS011;15597;50.914;6.638;2022-11-15T16:35:06;4.45;;;2.03;;
28343;SDS011;15597;50.914;6.638;2022-11-15T16:37:35;5.03;;;1.77;;
28343;SDS011;15597;50.914;6.638;2022-11-15T16:40:00;6.63;;;1.85;;
28343;SDS011;15597;50.914;6.638;2022-11-15T16:42:26;6.82;;;1.88;;
28343;SDS011;15597;50.914;6.638;2022-11-15T16:44:52;5.30;;;2.42;;
28343;SDS011;15597;50.914;6.638;2022-11-15T16:47:17;8.38;;;2.20;;
28343;SDS011;15597;50.914;6.638;2022-11-15T16:49:47;4.57;;;1.50;;
28343;SDS011;15597;50.914;6.638;2022-11-15T16:52:12;5.57;;;1.70;;
28343;SDS011;15597;50.914;6.638;2022-11-15T16:54:38;4.28;;;1.65;;
28343;SDS011;15597;50.914;6.638;2022-11-15T16:57:03;4.63;;;1.67;;
28343;SDS011;15597;50.914;6.638;2022-11-15T16:59:29;5.43;;;1.67;;
28343;SDS011;15597;50.914;6.638;2022-11-15T17:01:56;4.43;;;1.70;;
28343;SDS011;15597;50.914;6.638;2022-11-15T17:04:22;4.70;;;1.58;;
28343;SDS011;15597;50.914;6.638;2022-11-15T17:06:48;4.63;;;1.80;;
28343;SDS011;15597;50.914;6.638;2022-11-15T17:09:14;5.65;;;1.90;;
28343;SDS011;15597;50.914;6.638;2022-11-15T17:11:43;4.25;;;1.70;;
28343;SDS011;15597;50.914;6.638;2022-11-15T17:14:09;5.50;;;2.00;;
28343;SDS011;15597;50.914;6.638;2022-11-15T17:16:35;3.45;;;1.70;;
28343;SDS011;15597;50.914;6.638;2022-11-15T17:19:03;4.15;;;1.70;;
28343;SDS011;15597;50.914;6.638;2022-11-15T17:21:30;4.53;;;1.70;;
28343;SDS011;15597;50.914;6.638;2022-11-15T17:23:57;4.15;;;2.08;;
28343;SDS011;15597;50.914;6.638;2022-11-15T17:28:53;4.88;;;2.20;;
28343;SDS011;15597;50.914;6.638;2022-11-15T17:31:20;4.60;;;1.90;;
28343;SDS011;15597;50.914;6.638;2022-11-15T17:33:45;4.13;;;1.90;;
28343;SDS011;15597;50.914;6.638;2022-11-15T17:36:11;4.38;;;1.98;;
28343;SDS011;15597;50.914;6.638;2022-11-15T17:38:37;5.20;;;2.00;;
28343;SDS011;15597;50.914;6.638;2022-11-15T17:41:06;5.15;;;1.70;;
28343;SDS011;15597;50.914;6.638;2022-11-15T17:43:35;3.95;;;1.52;;
28343;SDS011;15597;50.914;6.638;2022-11-15T17:46:03;5.88;;;1.77;;
28343;SDS011;15597;50.914;6.638;2022-11-15T17:48:30;4.45;;;1.60;;
28343;SDS011;15597;50.914;6.638;2022-11-15T17:50:57;5.68;;;1.90;;
28343;SDS011;15597;50.914;6.638;2022-11-15T17:55:50;4.93;;;2.33;;
28343;SDS011;15597;50.914;6.638;2022-11-15T17:58:16;6.18;;;2.22;;
28343;SDS011;15597;50.914;6.638;2022-11-15T18:00:45;6.60;;;2.80;;
28343;SDS011;15597;50.914;6.638;2022-11-15T18:03:11;4.95;;;2.05;;
28343;SDS011;15597;50.914;6.638;2022-11-15T18:05:37;7.20;;;2.65;;
28343;SDS011;15597;50.914;6.638;2022-11-15T18:08:05;6.03;;;2.40;;
28343;SDS011;15597;50.914;6.638;2022-11-15T18:10:30;6.38;;;2.10;;
28343;SDS011;15597;50.914;6.638;2022-11-15T18:12:56;5.93;;;2.17;;
28343;SDS011;15597;50.914;6.638;2022-11-15T18:15:21;5.32;;;2.08;;
28343;SDS011;15597;50.914;6.638;2022-11-15T18:17:47;7.72;;;3.53;;
28343;SDS011;15597;50.914;6.638;2022-11-15T18:20:13;6.35;;;2.90;;
28343;SDS011;15597;50.914;6.638;2022-11-15T18:22:38;5.13;;;2.67;;
28343;SDS011;15597;50.914;6.638;2022-11-15T18:25:04;4.20;;;2.13;;
28343;SDS011;15597;50.914;6.638;2022-11-15T18:27:30;6.07;;;2.13;;
28343;SDS011;15597;50.914;6.638;2022-11-15T18:29:55;5.22;;;2.03;;
28343;SDS011;15597;50.914;6.638;2022-11-15T18:32:21;5.13;;;2.17;;
28343;SDS011;15597;50.914;6.638;2022-11-15T18:34:46;5.75;;;2.25;;